Time;durP1;ratioP1;P1;durP2;ratioP2;P2;SDS_P1;SDS_P2;PMS_P1;PMS_P2;Temp;Humidity;BMP_temperature;BMP_pressure;BME280_temperature;BME280_humidity;BME280_pressure;Samples;Min_cycle;Max_cycle;Signal;HPM_P1;HPM_P2
2021/11/12 00:03:42;;;;;;;16.35;15.40;;;19.30;99.90;;;;;;5015777;28;20506;-77
2021/11/12 00:12:15;;;;;;;13.60;13.05;;;19.90;99.90;;;;;;5016040;28;20025;-78
2021/11/12 00:14:43;;;;;;;11.68;11.13;;;20.10;99.90;;;;;;5015395;28;20040;-78
2021/11/12 00:17:12;;;;;;;12.80;12.20;;;19.60;99.90;;;;;;5014741;28;20022;-78
2021/11/12 00:19:40;;;;;;;12.85;12.35;;;19.90;99.90;;;;;;5014365;28;20030;-78
2021/11/12 00:22:09;;;;;;;12.35;11.85;;;20.40;99.90;;;;;;5016004;28;20030;-78
2021/11/12 00:24:36;;;;;;;11.77;11.25;;;20.50;99.90;;;;;;5015744;28;20142;-77
2021/11/12 00:27:06;;;;;;;12.30;11.80;;;20.70;99.90;;;;;;5015622;28;20021;-76
2021/11/12 00:29:43;;;;;;;11.67;11.17;;;20.70;99.90;;;;;;5014535;28;20080;-76
2021/11/12 00:32:40;;;;;;;11.50;11.10;;;20.70;99.90;;;;;;5015352;28;20115;-76
2021/11/12 00:35:35;;;;;;;11.70;11.10;;;21.20;99.90;;;;;;5014131;28;20033;-75
2021/11/12 00:38:01;;;;;;;11.30;10.80;;;21.00;99.90;;;;;;5014592;28;20065;-74
2021/11/12 00:43:26;;;;;;;10.52;10.02;;;21.40;99.90;;;;;;5016885;28;20470;-78
2021/11/12 00:46:06;;;;;;;10.48;10.07;;;21.50;99.90;;;;;;5016985;28;20084;-77
2021/11/12 00:48:38;;;;;;;11.05;10.48;;;21.40;99.90;;;;;;5015440;28;20018;-77
2021/11/12 00:51:12;;;;;;;11.05;10.55;;;21.40;99.90;;;;;;5014436;28;20030;-78
2021/11/12 00:53:44;;;;;;;8.45;8.15;;;21.30;99.90;;;;;;5015810;28;20497;-78
2021/11/12 00:56:11;;;;;;;8.40;8.10;;;21.40;99.90;;;;;;5014634;28;20053;-78
2021/11/12 00:58:38;;;;;;;9.30;8.90;;;21.40;99.90;;;;;;5013953;28;20478;-84
2021/11/12 01:01:06;;;;;;;9.48;8.98;;;21.00;99.90;;;;;;5013448;28;20025;-74
2021/11/12 01:03:34;;;;;;;9.70;9.30;;;21.30;99.90;;;;;;5014789;28;20029;-77
2021/11/12 01:06:01;;;;;;;9.38;8.98;;;21.50;99.90;;;;;;5014653;28;20022;-77
2021/11/12 01:08:28;;;;;;;8.82;8.35;;;21.40;99.90;;;;;;5013438;28;20048;-76
2021/11/12 01:10:57;;;;;;;8.00;7.60;;;21.50;99.90;;;;;;5013484;28;20025;-76
2021/11/12 01:13:26;;;;;;;7.70;7.40;;;21.80;99.90;;;;;;5013721;28;20057;-77
2021/11/12 01:15:53;;;;;;;7.90;7.53;;;21.90;99.90;;;;;;5014612;28;20033;-77
2021/11/12 01:18:21;;;;;;;7.72;7.30;;;21.90;99.90;;;;;;5013504;28;20022;-77
2021/11/12 01:20:50;;;;;;;8.73;8.07;;;22.00;99.90;;;;;;5013273;28;20116;-77
2021/11/12 01:23:19;;;;;;;8.85;8.45;;;21.50;99.90;;;;;;5014508;28;20387;-77
2021/11/12 01:25:46;;;;;;;9.23;8.82;;;21.40;99.90;;;;;;5013507;28;20376;-76
2021/11/12 01:28:14;;;;;;;8.57;8.20;;;21.40;99.90;;;;;;5014613;28;20018;-76
2021/11/12 01:30:41;;;;;;;8.90;8.48;;;21.40;99.90;;;;;;5013030;28;20395;-77
2021/11/12 01:33:09;;;;;;;8.85;8.45;;;21.50;99.90;;;;;;5013022;28;20025;-77
2021/11/12 01:35:37;;;;;;;8.05;7.75;;;21.70;99.90;;;;;;5013163;28;20052;-76
2021/11/12 01:38:06;;;;;;;9.02;8.63;;;21.40;99.90;;;;;;5013224;28;20049;-78
2021/11/12 01:40:34;;;;;;;8.30;7.90;;;21.60;99.90;;;;;;5014024;28;20054;-77
2021/11/12 01:43:10;;;;;;;8.38;7.90;;;21.20;99.90;;;;;;5014201;28;20052;-76
2021/11/12 01:48:47;;;;;;;8.20;7.90;;;22.30;99.90;;;;;;5018949;28;20028;-76
2021/11/12 01:59:20;;;;;;;8.20;7.70;;;23.00;99.90;;;;;;5020718;28;20026;-77
2021/11/12 02:01:58;;;;;;;8.52;8.13;;;22.50;99.90;;;;;;5020449;28;20033;-77
2021/11/12 02:04:31;;;;;;;8.43;8.05;;;22.20;99.90;;;;;;5020409;28;20038;-78
2021/11/12 02:07:00;;;;;;;8.02;7.72;;;21.90;99.90;;;;;;5020789;28;20384;-77
2021/11/12 02:09:30;;;;;;;8.13;7.80;;;21.60;99.90;;;;;;5019335;28;20175;-78
2021/11/12 02:12:21;;;;;;;8.15;7.75;;;21.40;99.90;;;;;;5003246;28;20049;-77
2021/11/12 02:14:50;;;;;;;7.85;7.45;;;21.60;99.90;;;;;;5019712;28;20546;-80
2021/11/12 02:17:23;;;;;;;7.13;6.53;;;21.80;99.90;;;;;;5020497;28;20033;-82
2021/11/12 02:20:13;;;;;;;7.65;7.20;;;21.90;99.90;;;;;;5021175;28;20026;-81
2021/11/12 02:22:41;;;;;;;8.25;7.50;;;21.80;99.90;;;;;;5022374;28;20479;-82
2021/11/12 02:25:12;;;;;;;7.57;7.18;;;22.10;99.90;;;;;;5025009;28;20022;-81
2021/11/12 02:28:05;;;;;;;7.50;7.10;;;22.00;99.90;;;;;;5024382;28;20056;-82
2021/11/12 02:30:30;;;;;;;7.85;7.40;;;22.00;99.90;;;;;;5030124;28;20046;-82
2021/11/12 02:33:12;;;;;;;7.82;7.35;;;22.10;99.90;;;;;;5434621;22;20050;-82
2021/11/12 02:35:57;;;;;;;8.77;8.02;;;22.10;99.90;;;;;;5022614;28;20053;-82
2021/11/12 02:38:25;;;;;;;8.77;8.00;;;22.60;99.90;;;;;;5021680;28;20030;-81
2021/11/12 02:40:53;;;;;;;8.32;7.82;;;22.80;99.90;;;;;;5020762;28;20026;-82
2021/11/12 02:43:21;;;;;;;8.25;7.82;;;23.20;99.90;;;;;;5021795;28;20125;-80
2021/11/12 02:45:48;;;;;;;8.23;7.70;;;24.00;99.90;;;;;;5022534;28;20368;-81
2021/11/12 02:48:16;;;;;;;7.90;7.38;;;24.00;99.90;;;;;;5022745;28;20029;-79
2021/11/12 02:50:44;;;;;;;7.78;7.40;;;24.30;99.90;;;;;;5023112;28;20476;-81
2021/11/12 02:53:14;;;;;;;7.03;6.63;;;24.20;99.90;;;;;;5021082;28;20034;-81
2021/11/12 02:55:43;;;;;;;6.30;5.90;;;24.00;99.90;;;;;;5021357;28;20025;-80
2021/11/12 02:58:11;;;;;;;5.57;5.13;;;24.20;99.90;;;;;;5019460;28;20037;-79
2021/11/12 03:00:41;;;;;;;5.60;5.30;;;24.40;99.90;;;;;;5016334;28;20084;-79
2021/11/12 03:03:09;;;;;;;5.47;4.82;;;24.60;99.90;;;;;;5017739;28;20029;-81
2021/11/12 03:05:38;;;;;;;4.65;4.45;;;24.60;99.90;;;;;;5016980;28;20018;-79
2021/11/12 03:08:06;;;;;;;5.55;5.15;;;24.00;99.90;;;;;;5017194;28;20089;-80
2021/11/12 03:10:34;;;;;;;5.40;5.20;;;23.10;99.90;;;;;;5017840;28;20490;-81
2021/11/12 03:13:01;;;;;;;5.80;5.30;;;23.50;99.90;;;;;;5017159;28;20100;-79
2021/11/12 03:15:29;;;;;;;5.40;5.10;;;24.30;99.90;;;;;;5015622;28;20422;-78
2021/11/12 03:17:58;;;;;;;6.32;5.03;;;25.00;99.90;;;;;;5017016;28;20033;-77
2021/11/12 03:20:28;;;;;;;5.10;4.80;;;24.90;99.90;;;;;;5016915;28;20443;-79
2021/11/12 03:23:01;;;;;;;4.80;4.50;;;24.20;99.90;;;;;;5017499;28;20022;-78
2021/11/12 03:25:58;;;;;;;4.90;4.50;;;23.70;99.90;;;;;;5015729;28;20264;-80
2021/11/12 04:04:12;;;;;;;4.90;4.65;;;24.20;99.90;;;;;;5017201;28;20399;-79
2021/11/12 04:06:54;;;;;;;4.68;4.38;;;23.60;99.90;;;;;;5014986;28;20024;-78
2021/11/12 04:49:28;;;;;;;4.47;4.10;;;23.10;99.90;;;;;;5015583;28;20029;-79
2021/11/12 05:02:57;;;;;;;4.65;4.35;;;23.10;99.90;;;;;;5015704;28;20129;-78
2021/11/12 05:10:08;;;;;;;5.53;5.20;;;22.30;99.90;;;;;;5015072;28;20032;-79
2021/11/12 05:33:26;;;;;;;4.72;4.35;;;22.90;99.90;;;;;;5015039;28;20068;-79
2021/11/12 05:51:25;;;;;;;5.00;4.60;;;23.00;99.90;;;;;;5014330;28;20040;-77
2021/11/12 05:56:42;;;;;;;4.82;4.30;;;24.50;99.90;;;;;;5014614;28;20095;-77
2021/11/12 05:59:10;;;;;;;4.53;4.18;;;23.70;99.90;;;;;;5014458;28;20518;-78
2021/11/12 06:01:39;;;;;;;6.35;4.78;;;23.40;99.90;;;;;;5013136;28;20108;-77
2021/11/12 06:04:07;;;;;;;6.18;4.60;;;23.00;99.90;;;;;;5012775;28;20391;-77
2021/11/12 06:06:35;;;;;;;4.95;4.50;;;23.00;99.90;;;;;;5012926;28;20391;-77
2021/11/12 06:09:04;;;;;;;5.03;4.60;;;22.90;99.90;;;;;;5012563;28;20022;-77
2021/11/12 06:11:32;;;;;;;4.68;4.30;;;22.80;99.90;;;;;;5013987;28;20049;-78
2021/11/12 06:14:01;;;;;;;5.25;3.90;;;22.70;99.90;;;;;;5012556;28;20117;-77
2021/11/12 06:16:28;;;;;;;4.13;3.70;;;22.70;99.90;;;;;;5013036;28;20026;-77
2021/11/12 06:18:56;;;;;;;5.90;4.03;;;22.60;99.90;;;;;;5012598;28;20386;-78
2021/11/12 06:21:25;;;;;;;6.13;3.75;;;23.00;99.90;;;;;;5014187;28;20391;-77
2021/11/12 06:23:52;;;;;;;4.90;4.07;;;22.90;99.90;;;;;;5012585;28;20054;-78
2021/11/12 06:26:21;;;;;;;6.25;4.30;;;23.00;99.90;;;;;;5013819;28;20064;-78
2021/11/12 06:28:49;;;;;;;4.65;4.25;;;23.40;99.90;;;;;;5013965;28;20110;-76
2021/11/12 06:31:21;;;;;;;6.07;4.18;;;23.70;99.90;;;;;;5013977;28;20045;-80
2021/11/12 06:33:49;;;;;;;4.20;3.90;;;23.40;99.90;;;;;;5014696;28;20056;-80
2021/11/12 06:36:18;;;;;;;4.93;4.00;;;23.20;99.90;;;;;;5017598;28;20033;-79
2021/11/12 06:38:46;;;;;;;4.10;3.80;;;23.50;99.90;;;;;;5016365;28;20076;-80
2021/11/12 06:41:15;;;;;;;4.15;3.72;;;23.50;99.90;;;;;;5017541;28;20101;-81
2021/11/12 06:51:44;;;;;;;4.38;3.63;;;25.50;99.90;;;;;;5017710;28;20064;-79
2021/11/12 06:54:12;;;;;;;5.75;3.47;;;25.30;99.90;;;;;;5017651;28;20085;-81
2021/11/12 06:56:39;;;;;;;4.53;3.72;;;24.70;99.90;;;;;;5016026;28;20444;-81
2021/11/12 06:59:07;;;;;;;7.10;3.92;;;24.60;99.90;;;;;;5017121;28;20030;-80
2021/11/12 07:01:34;;;;;;;7.65;3.42;;;24.00;99.90;;;;;;5015646;28;20411;-82
2021/11/12 07:04:03;;;;;;;4.82;3.30;;;23.10;99.90;;;;;;5016718;28;20063;-81
2021/11/12 07:06:30;;;;;;;7.18;3.35;;;22.50;99.90;;;;;;5016682;28;20021;-80
2021/11/12 07:08:58;;;;;;;4.90;3.55;;;22.20;99.90;;;;;;5017490;28;20466;-81
2021/11/12 07:11:25;;;;;;;8.77;3.70;;;22.60;99.90;;;;;;5017584;28;20100;-82
2021/11/12 07:13:52;;;;;;;5.97;4.13;;;22.40;99.90;;;;;;5017741;28;20022;-82
2021/11/12 07:16:20;;;;;;;5.72;3.97;;;21.80;99.90;;;;;;5016061;28;20022;-81
2021/11/12 07:18:48;;;;;;;6.30;3.85;;;21.50;99.90;;;;;;5017379;28;20442;-80
2021/11/12 07:21:15;;;;;;;7.10;4.20;;;21.50;99.90;;;;;;5017437;28;20407;-81
2021/11/12 07:23:43;;;;;;;5.50;4.25;;;21.20;99.90;;;;;;5017497;28;20025;-81
2021/11/12 07:26:10;;;;;;;7.65;4.63;;;21.00;99.90;;;;;;5016296;28;20033;-81
2021/11/12 07:28:38;;;;;;;9.73;4.95;;;20.80;99.90;;;;;;5015908;28;20121;-80
2021/11/12 07:31:06;;;;;;;8.35;5.75;;;20.50;99.90;;;;;;5015506;28;20025;-80
2021/11/12 07:33:36;;;;;;;6.47;5.88;;;20.50;99.90;;;;;;5016713;28;20042;-81
2021/11/12 07:36:14;;;;;;;8.15;6.80;;;20.60;99.90;;;;;;5016988;28;20026;-79
2021/11/12 07:44:10;;;;;;;6.60;5.53;;;20.80;99.90;;;;;;5016582;28;20034;-79
2021/11/12 07:46:41;;;;;;;6.15;5.20;;;20.80;99.90;;;;;;5014614;28;20057;-80
2021/11/12 07:49:11;;;;;;;6.65;6.10;;;20.70;99.90;;;;;;5015439;28;20121;-80
2021/11/12 07:51:40;;;;;;;6.80;6.20;;;20.50;99.90;;;;;;5016637;28;20060;-82
2021/11/12 07:54:09;;;;;;;7.22;6.50;;;20.40;99.90;;;;;;5015626;28;20030;-81
2021/11/12 07:56:37;;;;;;;7.20;6.60;;;20.20;99.90;;;;;;5015137;28;20030;-79
2021/11/12 07:59:06;;;;;;;8.02;7.43;;;20.00;99.90;;;;;;5016790;28;20049;-80
2021/11/12 08:01:34;;;;;;;8.00;7.40;;;19.90;99.90;;;;;;5015631;28;20026;-80
2021/11/12 08:04:05;;;;;;;9.63;8.88;;;19.80;99.90;;;;;;5015063;28;20495;-80
2021/11/12 08:06:33;;;;;;;10.70;9.38;;;19.70;99.90;;;;;;5016298;28;20022;-81
2021/11/12 08:11:38;;;;;;;11.60;9.55;;;19.50;99.90;;;;;;5016380;28;20383;-81
2021/11/12 08:14:54;;;;;;;10.77;10.10;;;19.30;99.90;;;;;;5014800;28;20487;-80
2021/11/12 08:17:33;;;;;;;10.73;9.85;;;19.20;99.90;;;;;;5010497;28;20113;-80
2021/11/12 08:19:55;;;;;;;11.13;10.15;;;19.10;99.90;;;;;;5013579;28;20042;-79
2021/11/12 08:28:03;;;;;;;13.90;12.40;;;18.80;99.90;;;;;;5016196;28;20022;-78
2021/11/12 08:35:51;;;;;;;13.95;12.95;;;18.60;99.90;;;;;;5015745;28;20026;-74
2021/11/12 08:43:37;;;;;;;14.60;13.60;;;18.50;99.90;;;;;;5015248;28;20022;-80
2021/11/12 08:51:21;;;;;;;15.50;14.30;;;18.40;99.90;;;;;;5015936;28;20022;-81
2021/11/12 08:53:49;;;;;;;15.75;14.65;;;18.40;99.90;;;;;;5015489;28;20029;-80
2021/11/12 08:56:19;;;;;;;16.27;15.07;;;18.40;99.90;;;;;;5014704;28;20021;-79
2021/11/12 08:58:51;;;;;;;16.55;15.45;;;18.40;99.90;;;;;;5014029;28;20030;-80
2021/11/12 09:01:20;;;;;;;16.05;14.85;;;18.30;99.90;;;;;;5013368;28;20033;-80
2021/11/12 09:03:48;;;;;;;15.98;14.75;;;18.30;99.90;;;;;;5015004;28;20026;-80
2021/11/12 09:06:16;;;;;;;15.63;14.45;;;18.20;99.90;;;;;;5015466;28;20061;-80
2021/11/12 09:08:44;;;;;;;15.02;14.07;;;18.20;99.90;;;;;;5015033;28;20018;-78
2021/11/12 09:11:12;;;;;;;15.68;14.50;;;18.10;99.90;;;;;;5015109;28;20022;-79
2021/11/12 09:13:49;;;;;;;15.13;14.05;;;18.00;99.90;;;;;;5015452;28;20032;-78
2021/11/12 09:16:17;;;;;;;15.60;14.63;;;17.90;99.90;;;;;;5014077;28;20479;-80
2021/11/12 09:18:48;;;;;;;15.80;14.63;;;17.80;99.90;;;;;;5013887;28;20475;-79
2021/11/12 09:21:17;;;;;;;16.08;15.15;;;17.80;99.90;;;;;;5014629;28;20120;-78
2021/11/12 09:23:45;;;;;;;16.20;15.30;;;17.70;99.90;;;;;;4997782;28;20053;-81
2021/11/12 09:26:13;;;;;;;16.75;15.80;;;17.70;99.90;;;;;;5015135;28;20025;-81
2021/11/12 09:28:40;;;;;;;15.93;15.13;;;17.50;99.90;;;;;;5015332;28;20447;-81
2021/11/12 09:31:09;;;;;;;17.05;15.73;;;17.40;99.90;;;;;;5015189;28;20029;-80
2021/11/12 09:33:38;;;;;;;16.52;15.57;;;17.40;99.90;;;;;;5013553;28;20049;-81
2021/11/12 09:36:09;;;;;;;16.70;15.63;;;17.40;99.90;;;;;;5015267;28;20029;-81
2021/11/12 09:38:41;;;;;;;16.70;15.80;;;17.30;99.90;;;;;;5013946;28;20108;-81
2021/11/12 09:41:11;;;;;;;17.20;16.17;;;17.40;99.90;;;;;;5015166;28;20517;-81
2021/11/12 09:43:40;;;;;;;17.60;16.38;;;17.40;99.90;;;;;;4998045;28;20034;-81
2021/11/12 09:46:10;;;;;;;17.33;16.08;;;17.40;99.90;;;;;;5013850;28;20117;-81
2021/11/12 09:48:37;;;;;;;;;;;17.40;99.90;;;;;;5015511;28;20071;-81
2021/11/12 09:51:05;;;;;;;19.08;17.60;;;17.50;99.90;;;;;;5015146;28;19984;-81
2021/11/12 09:53:32;;;;;;;18.77;17.67;;;17.50;99.90;;;;;;5013775;28;20543;-81
2021/11/12 09:56:02;;;;;;;19.58;18.33;;;17.40;99.90;;;;;;5015002;28;20030;-81
2021/11/12 09:58:30;;;;;;;19.30;18.15;;;17.50;99.90;;;;;;5013909;28;20037;-81
2021/11/12 10:00:59;;;;;;;19.60;18.60;;;17.50;99.90;;;;;;5014734;28;20026;-81
2021/11/12 10:03:33;;;;;;;19.80;18.60;;;17.50;99.90;;;;;;5015175;28;20028;-81
2021/11/12 10:06:19;;;;;;;20.90;19.45;;;17.50;99.90;;;;;;5014957;28;20029;-81
2021/11/12 10:08:47;;;;;;;20.45;19.00;;;17.50;99.90;;;;;;5018360;28;20022;-80
2021/11/12 10:11:24;;;;;;;20.38;18.95;;;17.50;99.90;;;;;;5019112;28;20022;-80
2021/11/12 10:13:59;;;;;;;20.83;19.30;;;17.60;99.90;;;;;;5019107;28;20487;-81
2021/11/12 10:16:42;;;;;;;19.60;18.48;;;17.60;99.90;;;;;;5018485;28;20117;-80
2021/11/12 10:19:14;;;;;;;20.00;18.80;;;17.60;99.90;;;;;;5017699;28;20036;-80
2021/11/12 10:21:43;;;;;;;20.77;19.50;;;17.60;99.90;;;;;;5017843;28;20514;-81
2021/11/12 10:24:17;;;;;;;19.48;18.27;;;17.50;99.90;;;;;;5017186;28;20495;-80
2021/11/12 10:26:52;;;;;;;20.02;18.67;;;17.50;99.90;;;;;;5018620;28;20021;-81
2021/11/12 10:29:35;;;;;;;19.75;18.48;;;17.50;99.90;;;;;;5017074;28;20030;-80
2021/11/12 10:32:11;;;;;;;20.10;18.90;;;17.50;99.90;;;;;;5017449;28;20041;-80
2021/11/12 10:34:42;;;;;;;20.80;19.55;;;17.50;99.90;;;;;;5018368;28;20536;-81
2021/11/12 10:37:21;;;;;;;21.80;20.30;;;17.50;99.90;;;;;;5016979;28;20084;-80
2021/11/12 10:40:01;;;;;;;21.25;19.98;;;17.40;99.90;;;;;;5018223;28;20061;-81
2021/11/12 10:42:33;;;;;;;20.85;19.77;;;17.40;99.90;;;;;;5018176;28;20048;-81
2021/11/12 10:45:09;;;;;;;21.20;19.98;;;17.40;99.90;;;;;;5016959;28;20032;-81
2021/11/12 10:47:50;;;;;;;21.02;19.83;;;17.40;99.90;;;;;;5018484;28;20498;-81
2021/11/12 10:50:19;;;;;;;21.88;20.40;;;17.40;99.90;;;;;;5017469;28;20382;-80
2021/11/12 10:52:49;;;;;;;21.77;19.92;;;17.50;99.90;;;;;;5018365;28;20053;-80
2021/11/12 10:55:25;;;;;;;20.77;19.48;;;17.50;99.90;;;;;;5016986;28;20083;-78
2021/11/12 10:57:55;;;;;;;21.13;19.70;;;17.50;99.90;;;;;;5018130;28;20026;-79
2021/11/12 11:00:32;;;;;;;20.75;19.45;;;17.50;99.90;;;;;;5017680;28;20057;-79
2021/11/12 11:03:09;;;;;;;20.58;19.27;;;17.50;99.90;;;;;;5018231;28;20430;-78
2021/11/12 11:05:52;;;;;;;20.23;19.25;;;17.50;99.90;;;;;;5017806;28;20050;-79
2021/11/12 11:08:25;;;;;;;20.80;19.20;;;17.60;99.90;;;;;;5017871;28;20540;-79
2021/11/12 11:10:53;;;;;;;19.42;18.25;;;17.60;99.90;;;;;;5016533;28;20030;-78
2021/11/12 11:13:27;;;;;;;18.38;17.48;;;17.60;99.90;;;;;;5015912;28;20030;-79
2021/11/12 11:15:57;;;;;;;17.40;16.40;;;17.60;99.90;;;;;;5016122;28;20030;-79
2021/11/12 11:18:31;;;;;;;15.50;14.80;;;17.60;99.90;;;;;;5016675;28;20471;-78
2021/11/12 11:23:53;;;;;;;8.75;8.45;;;17.80;99.90;;;;;;5017406;28;20026;-78
2021/11/12 11:26:39;;;;;;;7.40;7.10;;;18.10;99.90;;;;;;5016188;28;20033;-79
2021/11/12 11:29:08;;;;;;;5.50;5.30;;;18.30;99.90;;;;;;5017992;28;20046;-78
2021/11/12 11:31:36;;;;;;;4.30;4.10;;;18.40;99.90;;;;;;5016308;28;20054;-79
2021/11/12 11:34:06;;;;;;;3.60;3.40;;;18.50;99.90;;;;;;5017378;28;20056;-79
2021/11/12 11:36:36;;;;;;;3.25;3.05;;;18.70;99.90;;;;;;5016276;28;20068;-79
2021/11/12 11:39:05;;;;;;;;;;;18.70;99.90;;;;;;5016228;28;20534;-79
2021/11/12 11:41:32;;;;;;;2.90;2.70;;;18.80;99.90;;;;;;5032004;28;19912;-78
2021/11/12 11:44:00;;;;;;;2.90;2.80;;;18.80;99.90;;;;;;5015709;28;20026;-78
2021/11/12 11:46:34;;;;;;;2.97;2.80;;;18.80;99.90;;;;;;5015641;28;20394;-78
2021/11/12 11:49:08;;;;;;;2.67;2.47;;;18.80;99.90;;;;;;5016720;28;20029;-79
2021/11/12 11:51:39;;;;;;;2.60;2.50;;;18.90;99.90;;;;;;5015340;28;20034;-80
2021/11/12 11:54:13;;;;;;;2.70;2.60;;;18.90;99.90;;;;;;5017098;28;20431;-80
2021/11/12 11:56:50;;;;;;;2.10;2.00;;;18.80;99.90;;;;;;5015564;28;20120;-79
2021/11/12 11:59:17;;;;;;;2.03;1.92;;;18.80;99.90;;;;;;5015468;28;20033;-79
2021/11/12 12:01:51;;;;;;;2.25;2.15;;;18.80;99.90;;;;;;5016699;28;20049;-78
2021/11/12 12:04:19;;;;;;;2.10;2.00;;;18.80;99.90;;;;;;5015207;28;20022;-78
2021/11/12 12:07:16;;;;;;;2.10;2.10;;;18.70;99.90;;;;;;5015020;28;20084;-78
2021/11/12 12:09:47;;;;;;;2.10;2.10;;;18.70;99.90;;;;;;5016581;28;20573;-78
2021/11/12 12:12:36;;;;;;;2.00;2.00;;;18.70;99.90;;;;;;5015215;28;20037;-78
2021/11/12 12:15:07;;;;;;;2.40;2.30;;;18.60;99.90;;;;;;5016942;28;20069;-79
2021/11/12 12:17:40;;;;;;;2.10;2.10;;;18.60;99.90;;;;;;5014872;28;20400;-78
2021/11/12 12:32:24;;;;;;;2.90;2.80;;;18.30;99.90;;;;;;5015857;28;20080;-79
2021/11/12 12:43:39;;;;;;;2.30;2.30;;;18.10;99.90;;;;;;5015037;28;20033;-78
2021/11/12 13:23:28;;;;;;;2.10;2.00;;;17.30;99.90;;;;;;5015148;28;20018;-77
2021/11/12 13:25:59;;;;;;;1.95;1.90;;;17.20;99.90;;;;;;5013844;28;20037;-78
2021/11/12 13:28:26;;;;;;;2.10;1.80;;;17.20;99.90;;;;;;5015220;28;20382;-79
2021/11/12 13:31:12;;;;;;;2.30;2.20;;;17.20;99.90;;;;;;5013784;28;20490;-78
2021/11/12 13:33:51;;;;;;;1.90;1.90;;;17.10;99.90;;;;;;5014895;28;20045;-77
2021/11/12 13:36:35;;;;;;;2.03;2.03;;;17.10;99.90;;;;;;5013515;28;20065;-77
2021/11/12 13:39:03;;;;;;;2.20;2.15;;;17.10;99.90;;;;;;5014839;28;20057;-77
2021/11/12 13:41:38;;;;;;;1.90;1.90;;;17.10;99.90;;;;;;5013454;28;20510;-79
2021/11/12 13:44:09;;;;;;;2.20;2.10;;;17.10;99.90;;;;;;5012608;28;20098;-77
2021/11/12 13:46:54;;;;;;;2.00;2.00;;;17.00;99.90;;;;;;5014869;28;20553;-78
2021/11/12 13:49:38;;;;;;;1.90;1.90;;;17.00;99.90;;;;;;5014843;28;20088;-78
2021/11/12 13:52:06;;;;;;;1.92;1.92;;;16.90;99.90;;;;;;5014450;28;20064;-79
2021/11/12 13:54:40;;;;;;;2.10;2.10;;;16.90;99.90;;;;;;5013439;28;20053;-79
2021/11/12 13:57:16;;;;;;;1.90;1.90;;;16.90;99.90;;;;;;5013338;28;20026;-78
2021/11/12 14:00:07;;;;;;;2.00;2.00;;;16.90;99.90;;;;;;5014831;28;20076;-78
2021/11/12 14:07:39;;;;;;;2.10;2.00;;;16.90;99.90;;;;;;4992411;28;20046;-75
2021/11/12 14:10:16;;;;;;;2.00;1.90;;;16.80;99.90;;;;;;4994711;28;20479;-75
2021/11/12 14:12:57;;;;;;;1.80;1.80;;;16.80;99.90;;;;;;4993692;28;20034;-75
2021/11/12 14:15:31;;;;;;;1.90;1.80;;;16.80;99.90;;;;;;4993596;28;20029;-76
2021/11/12 14:21:05;;;;;;;2.00;2.00;;;16.70;99.90;;;;;;4995266;28;20033;-76
2021/11/12 14:30:25;;;;;;;2.05;2.05;;;16.60;99.90;;;;;;4994622;28;20058;-75
2021/11/12 14:46:37;;;;;;;2.17;2.10;;;16.30;99.90;;;;;;4994748;28;20134;-76
2021/11/12 14:54:50;;;;;;;2.10;2.00;;;16.30;99.90;;;;;;4994376;28;20546;-76
2021/11/12 14:59:53;;;;;;;2.00;2.00;;;16.10;99.90;;;;;;4998050;28;20367;-76
2021/11/12 15:02:20;;;;;;;;;;;16.00;99.90;;;;;;4996797;28;20026;-76
2021/11/12 15:04:48;;;;;;;1.85;1.80;;;16.00;99.90;;;;;;4996349;28;19929;-77
2021/11/12 15:07:21;;;;;;;1.90;1.90;;;16.00;99.90;;;;;;4996258;28;20455;-77
2021/11/12 15:09:50;;;;;;;1.90;1.90;;;16.00;99.90;;;;;;4997835;28;20022;-75
2021/11/12 15:12:17;;;;;;;2.08;2.05;;;16.00;99.90;;;;;;4997756;28;20438;-75
2021/11/12 15:14:59;;;;;;;1.80;1.80;;;16.00;99.90;;;;;;4996056;28;20123;-76
2021/11/12 15:17:29;;;;;;;1.90;1.90;;;16.00;99.90;;;;;;4997647;28;20077;-76
2021/11/12 15:19:57;;;;;;;1.90;1.90;;;16.00;99.90;;;;;;4996223;28;20030;-76
2021/11/12 15:27:31;;;;;;;2.15;2.15;;;15.90;99.90;;;;;;4997708;28;20046;-77
2021/11/12 15:32:29;;;;;;;2.10;2.10;;;16.00;99.90;;;;;;4997222;28;20509;-75
2021/11/12 15:35:21;;;;;;;2.13;2.13;;;16.00;99.90;;;;;;4995841;28;20391;-75
2021/11/12 15:40:40;;;;;;;2.10;2.10;;;15.90;99.90;;;;;;4980985;28;20038;-76
2021/11/12 15:43:25;;;;;;;;;;;15.70;99.90;;;;;;4995975;28;20393;-75
2021/11/12 15:48:23;;;;;;;2.15;2.10;;;15.70;99.90;;;;;;4996849;28;20026;-75
2021/11/12 15:53:43;;;;;;;2.20;2.10;;;15.50;99.90;;;;;;4996947;28;20376;-76
2021/11/12 15:59:33;;;;;;;2.10;2.10;;;15.40;99.90;;;;;;4995433;28;20019;-75
2021/11/12 16:09:37;;;;;;;2.20;2.20;;;15.10;99.90;;;;;;4996883;28;20454;-76
2021/11/12 16:27:35;;;;;;;2.70;2.60;;;14.60;99.90;;;;;;4996333;28;20030;-76
2021/11/12 16:30:06;;;;;;;2.92;2.83;;;14.60;99.90;;;;;;4995054;28;20092;-75
2021/11/12 16:32:45;;;;;;;3.15;3.03;;;14.50;99.90;;;;;;4994750;28;20026;-76
2021/11/12 16:35:17;;;;;;;3.17;3.08;;;14.60;99.90;;;;;;4994877;28;20406;-76
2021/11/12 16:37:46;;;;;;;3.00;2.90;;;14.50;99.90;;;;;;4994598;28;20037;-76
2021/11/12 16:40:25;;;;;;;3.10;3.00;;;14.40;99.90;;;;;;4994483;28;20058;-75
2021/11/12 16:43:04;;;;;;;2.95;2.85;;;14.40;99.90;;;;;;4994507;28;20027;-76
2021/11/12 16:59:01;;;;;;;2.90;2.80;;;14.50;99.90;;;;;;4995957;28;20442;-76
2021/11/12 17:06:37;;;;;;;2.30;2.30;;;14.50;99.90;;;;;;4995438;28;20416;-77
2021/11/12 17:20:18;;;;;;;2.40;2.40;;;14.40;99.90;;;;;;4995251;28;20414;-76
2021/11/12 17:23:06;;;;;;;2.83;2.60;;;14.30;99.90;;;;;;4994866;28;20259;-76
2021/11/12 17:47:29;;;;;;;2.55;2.55;;;14.10;99.90;;;;;;4994967;28;20029;-76
2021/11/12 17:50:13;;;;;;;2.70;2.60;;;14.20;99.90;;;;;;4994176;28;20491;-75
2021/11/12 18:06:22;;;;;;;2.30;2.20;;;14.00;99.90;;;;;;4994703;28;20074;-76
2021/11/12 21:47:42;;;;;;;1.98;1.80;;;18.20;99.40;;;;;;4972574;28;20065;-79
2021/11/12 21:50:09;;;;;;;2.00;1.90;;;18.10;99.00;;;;;;4995208;28;20390;-75
2021/11/12 21:52:37;;;;;;;1.98;1.88;;;18.00;98.80;;;;;;4995125;28;20048;-78
2021/11/12 21:55:07;;;;;;;1.90;1.80;;;17.80;99.20;;;;;;4993858;28;20032;-81
2021/11/12 21:57:35;;;;;;;1.80;1.75;;;18.20;99.90;;;;;;4995702;28;20066;-77
2021/11/12 22:00:06;;;;;;;1.80;1.70;;;18.30;99.90;;;;;;4995798;28;20475;-78
2021/11/12 22:02:34;;;;;;;2.00;1.90;;;18.30;99.90;;;;;;4995233;28;20475;-78
2021/11/12 22:05:01;;;;;;;1.90;1.90;;;18.30;99.90;;;;;;4997311;28;20419;-78
2021/11/12 22:07:29;;;;;;;2.38;2.20;;;18.70;99.90;;;;;;4998344;28;20361;-79
2021/11/12 22:09:56;;;;;;;2.95;2.00;;;18.80;99.90;;;;;;5000077;28;20026;-81
2021/11/12 22:12:23;;;;;;;1.92;1.83;;;19.10;99.90;;;;;;4999683;28;20125;-79
2021/11/12 22:14:51;;;;;;;1.70;1.70;;;19.00;99.90;;;;;;4998881;28;20037;-76
2021/11/12 22:17:18;;;;;;;1.92;1.90;;;;;;;;;;4999215;28;20454;-79
2021/11/12 22:19:45;;;;;;;2.00;1.90;;;;;;;;;;5000652;28;20026;-80
2021/11/12 22:22:14;;;;;;;2.20;2.00;;;19.10;99.90;;;;;;5000270;28;20491;-77
2021/11/12 22:24:42;;;;;;;2.10;2.00;;;19.50;99.90;;;;;;4999340;28;20027;-81
2021/11/12 22:27:09;;;;;;;1.90;1.80;;;19.40;97.90;;;;;;5000651;28;20092;-79
2021/11/12 22:29:37;;;;;;;1.80;1.80;;;19.60;98.70;;;;;;4999743;28;20502;-79
2021/11/12 22:32:05;;;;;;;1.98;1.98;;;19.70;98.10;;;;;;4997563;28;20027;-82
2021/11/12 22:34:33;;;;;;;2.28;2.17;;;19.50;97.70;;;;;;4998010;28;20391;-75
2021/11/12 22:37:00;;;;;;;1.92;1.85;;;19.60;97.80;;;;;;4999516;28;20502;-80
2021/11/12 22:39:28;;;;;;;2.20;2.10;;;19.70;94.50;;;;;;5000893;28;20023;-83
2021/11/12 22:41:55;;;;;;;2.03;1.92;;;19.80;95.20;;;;;;5000527;28;20214;-77
2021/11/12 22:44:22;;;;;;;1.60;1.60;;;20.40;95.40;;;;;;4996136;28;20031;-75
2021/11/12 22:46:50;;;;;;;1.90;1.80;;;20.50;99.20;;;;;;4998267;28;20434;-75
2021/11/12 22:49:17;;;;;;;1.90;1.80;;;20.20;98.10;;;;;;4997958;28;20022;-76
2021/11/12 22:51:45;;;;;;;1.90;1.80;;;20.00;98.60;;;;;;4997054;28;20034;-75
2021/11/12 22:54:12;;;;;;;1.90;1.80;;;20.00;99.60;;;;;;4997591;28;20045;-78
2021/11/12 22:56:39;;;;;;;2.20;2.10;;;20.00;98.80;;;;;;4997572;28;20030;-81
2021/11/12 22:59:07;;;;;;;2.13;2.05;;;20.10;98.00;;;;;;4997496;28;20093;-80
2021/11/12 23:01:35;;;;;;;2.35;1.70;;;20.00;98.50;;;;;;4997891;28;20085;-78
2021/11/12 23:04:03;;;;;;;1.85;1.75;;;19.90;98.70;;;;;;4997151;28;20022;-75
2021/11/12 23:06:30;;;;;;;1.75;1.70;;;20.00;98.90;;;;;;4996831;28;20074;-79
2021/11/12 23:08:58;;;;;;;1.60;1.60;;;20.30;97.30;;;;;;4997756;28;20026;-81
2021/11/12 23:11:26;;;;;;;1.85;1.75;;;20.30;98.70;;;;;;5001358;28;20027;-76
2021/11/12 23:13:54;;;;;;;1.80;1.80;;;20.30;97.10;;;;;;4981512;28;20501;-79
2021/11/12 23:16:21;;;;;;;2.10;2.00;;;20.60;97.90;;;;;;4981113;28;20030;-78
2021/11/12 23:18:51;;;;;;;2.20;2.20;;;20.50;96.90;;;;;;4996611;28;20442;-76